Time;durP1;ratioP1;P1;durP2;ratioP2;P2;SDS_P1;SDS_P2;PMS_P1;PMS_P2;Temp;Humidity;BMP_temperature;BMP_pressure;BME280_temperature;BME280_humidity;BME280_pressure;Samples;Min_cycle;Max_cycle;Signal;HPM_P1;HPM_P2
2022/07/12 00:00:52;;;;;;;;;3.00;3.00;;;;;27.90;39.76;101638.44;2104237;27;47905;-58
2022/07/12 00:01:53;;;;;;;;;4.00;4.00;;;;;27.90;39.17;101639.28;2095065;28;47282;-59
2022/07/12 00:02:53;;;;;;;;;2.00;2.00;;;;;27.89;39.72;101643.00;2094856;28;47367;-57
2022/07/12 00:03:53;;;;;;;;;1.75;1.75;;;;;27.89;39.67;101647.59;2098898;27;47522;-60
2022/07/12 00:04:54;;;;;;;;;3.00;3.00;;;;;27.88;39.31;101640.41;2094855;28;47415;-59
2022/07/12 00:05:55;;;;;;;;;3.75;3.75;;;;;27.87;39.68;101639.53;2095184;28;48083;-59
2022/07/12 00:06:55;;;;;;;;;3.25;3.25;;;;;27.87;39.40;101636.81;2097705;27;46384;-60
2022/07/12 00:07:55;;;;;;;;;2.00;2.00;;;;;27.87;39.15;101634.09;2104482;27;47786;-58
2022/07/12 00:08:56;;;;;;;;;2.00;2.00;;;;;27.85;39.38;101631.47;2105024;27;47568;-58
2022/07/12 00:09:56;;;;;;;;;3.75;3.75;;;;;27.85;39.73;101633.34;2104907;28;47963;-59
2022/07/12 00:10:58;;;;;;;;;3.00;2.00;;;;;27.84;39.40;101627.03;2097291;27;47177;-59
2022/07/12 00:11:58;;;;;;;;;3.00;3.00;;;;;27.84;40.10;101628.88;2106824;27;47930;-58
2022/07/12 00:12:58;;;;;;;;;2.00;2.00;;;;;27.83;39.36;101624.41;2103960;27;47678;-61
2022/07/12 00:13:59;;;;;;;;;3.00;3.00;;;;;27.84;40.10;101634.34;2103851;27;47641;-60
2022/07/12 00:14:59;;;;;;;;;1.50;1.50;;;;;27.82;39.75;101625.38;2097614;27;47884;-60
2022/07/12 00:15:59;;;;;;;;;2.50;2.50;;;;;27.83;39.77;101632.59;2099167;27;47418;-61
2022/07/12 00:17:00;;;;;;;;;2.75;2.75;;;;;27.83;39.82;101629.88;2103678;27;46460;-60
2022/07/12 00:18:00;;;;;;;;;3.00;3.00;;;;;27.81;39.61;101629.97;2104406;28;47682;-60
2022/07/12 00:19:01;;;;;;;;;3.00;3.00;;;;;27.81;40.21;101624.50;2104068;27;47487;-60
2022/07/12 00:20:01;;;;;;;;;4.00;3.00;;;;;27.81;39.84;101620.91;2104817;27;47925;-61
2022/07/12 00:21:02;;;;;;;;;3.00;3.00;;;;;27.79;40.16;101623.78;2085641;28;47880;-59
2022/07/12 00:22:03;;;;;;;;;3.00;3.00;;;;;27.79;39.63;101621.03;2087575;28;47723;-60
2022/07/12 00:23:03;;;;;;;;;3.00;3.00;;;;;27.79;40.12;101622.91;2106774;27;48242;-60
2022/07/12 00:24:04;;;;;;;;;3.25;3.25;;;;;27.78;39.91;101624.78;2109262;27;47579;-58
2022/07/12 00:25:05;;;;;;;;;2.40;2.40;;;;;27.77;39.86;101625.75;2106370;27;47671;-59
2022/07/12 00:26:06;;;;;;;;;4.00;4.00;;;;;27.78;39.88;101629.34;2092285;28;47703;-57
2022/07/12 00:27:06;;;;;;;;;3.00;3.00;;;;;27.76;39.63;101626.75;2095692;28;47138;-59
2022/07/12 00:28:07;;;;;;;;;4.50;3.00;;;;;27.78;39.96;101626.63;2104458;27;47321;-61
2022/07/12 00:29:08;;;;;;;;;2.00;2.00;;;;;27.76;39.88;101636.81;2101757;28;47744;-58
2022/07/12 00:30:09;;;;;;;;;3.00;3.00;;;;;27.76;40.07;101637.66;2101362;28;47656;-59
2022/07/12 00:31:09;;;;;;;;;1.40;1.40;;;;;27.76;39.84;101640.41;2090248;28;46637;-60
2022/07/12 00:32:09;;;;;;;;;3.00;3.00;;;;;27.75;40.05;101629.59;2088058;28;48085;-60
2022/07/12 00:33:10;;;;;;;;;3.00;3.00;;;;;27.75;40.24;101622.28;2105345;27;45536;-58
2022/07/12 00:34:10;;;;;;;;;3.00;3.00;;;;;27.74;39.80;101628.75;2104122;27;47376;-58
2022/07/12 00:35:11;;;;;;;;;4.25;4.25;;;;;27.74;40.11;101625.16;2104463;28;47404;-57
2022/07/12 00:36:11;;;;;;;;;3.50;3.50;;;;;27.72;40.19;101627.13;2098935;28;47194;-58
2022/07/12 00:37:12;;;;;;;;;5.00;3.25;;;;;27.71;40.23;101622.66;2100199;28;47340;-56
2022/07/12 00:38:12;;;;;;;;;2.50;2.00;;;;;27.69;40.43;101624.63;2104353;27;47474;-58
2022/07/12 00:39:12;;;;;;;;;3.50;3.50;;;;;27.69;40.48;101617.31;2104990;27;47593;-58
2022/07/12 00:40:13;;;;;;;;;3.75;3.75;;;;;27.68;40.56;101618.31;2104116;27;48099;-58
2022/07/12 00:41:14;;;;;;;;;3.50;3.50;;;;;27.67;40.08;101613.84;2104301;28;47338;-57
2022/07/12 00:42:14;;;;;;;;;3.60;2.60;;;;;27.66;40.11;101622.16;2104169;27;46891;-57
2022/07/12 00:43:15;;;;;;;;;2.50;2.50;;;;;27.66;40.39;101617.56;2111134;27;47644;-59
2022/07/12 00:44:15;;;;;;;;;2.00;2.00;;;;;27.65;39.86;101617.69;2117154;27;47739;-59
2022/07/12 00:45:16;;;;;;;;;3.25;3.25;;;;;27.64;40.13;101611.38;2098777;27;47422;-58
2022/07/12 00:46:22;;;;;;;;;3.00;3.00;;;;;27.64;40.70;101613.19;2101583;27;46476;-59
2022/07/12 00:47:33;;;;;;;;;4.80;3.60;;;;;27.64;40.29;101613.19;2082353;28;45897;-58
2022/07/12 00:48:35;;;;;;;;;4.80;4.80;;;;;27.62;40.07;101617.91;2089862;28;46482;-58
2022/07/12 00:49:35;;;;;;;;;5.00;3.60;;;;;27.61;40.54;101608.84;2104009;28;47402;-59
2022/07/12 00:50:36;;;;;;;;;3.00;3.00;;;;;27.62;40.04;101612.44;2104277;27;46389;-59
2022/07/12 00:51:36;;;;;;;;;3.00;3.00;;;;;27.60;40.19;101609.84;2104351;27;47642;-58
2022/07/12 00:52:38;;;;;;;;;5.00;3.75;;;;;27.61;40.57;101608.84;2104649;28;45727;-59
2022/07/12 00:53:38;;;;;;;;;4.00;2.80;;;;;27.59;40.41;101610.84;2104697;27;47780;-57
2022/07/12 00:54:38;;;;;;;;;4.50;4.50;;;;;27.56;40.17;101606.47;2104363;27;47316;-59
2022/07/12 00:55:39;;;;;;;;;4.00;4.00;;;;;27.58;40.62;101603.66;2104249;28;47959;-59
2022/07/12 00:56:39;;;;;;;;;3.00;2.75;;;;;27.58;40.14;101610.97;2104628;27;45612;-58
2022/07/12 00:57:43;;;;;;;;;2.75;2.75;;;;;27.56;40.70;101608.34;2104663;28;47850;-59
2022/07/12 00:58:44;;;;;;;;;3.20;3.20;;;;;27.55;41.11;101610.19;2102165;27;47719;-59
2022/07/12 00:59:44;;;;;;;;;2.20;2.20;;;;;27.54;40.81;101610.31;2099042;28;48103;-59
2022/07/12 01:00:45;;;;;;;;;3.00;3.00;;;;;27.53;40.32;101612.19;2104161;28;46259;-57
2022/07/12 01:01:45;;;;;;;;;3.00;3.00;;;;;27.52;40.61;101605.00;2104127;27;47439;-57
2022/07/12 01:02:46;;;;;;;;;1.75;1.75;;;;;27.51;40.99;101605.97;2104705;27;47245;-59
2022/07/12 01:03:47;;;;;;;;;3.20;3.20;;;;;27.51;40.71;101602.38;2103901;28;47933;-60
2022/07/12 01:04:47;;;;;;;;;3.00;3.00;;;;;27.50;40.54;101600.66;2104910;27;45728;-60
2022/07/12 01:05:48;;;;;;;;;3.00;3.00;;;;;27.49;40.70;101599.78;2104454;28;46183;-58
2022/07/12 01:06:49;;;;;;;;;3.00;3.00;;;;;27.48;40.86;101603.50;2103975;28;47828;-59
2022/07/12 01:07:50;;;;;;;;;2.20;2.00;;;;;27.47;40.68;101606.34;2094377;28;46883;-59
2022/07/12 01:08:50;;;;;;;;;3.20;3.20;;;;;27.47;40.73;101599.03;2094993;28;47673;-58
2022/07/12 01:09:53;;;;;;;;;3.00;3.00;;;;;27.47;40.85;101601.78;2103777;28;47785;-59
2022/07/12 01:10:54;;;;;;;;;4.80;4.00;;;;;27.48;40.93;101602.63;2103957;27;46729;-59
2022/07/12 01:11:54;;;;;;;;;3.75;3.75;;;;;27.46;40.75;101602.75;2103953;28;47222;-58
2022/07/12 01:12:58;;;;;;;;;3.00;3.00;;;;;27.47;40.96;101606.34;2104506;27;46868;-59
2022/07/12 01:14:00;;;;;;;;;3.00;3.00;;;;;27.46;41.21;101604.63;2102918;28;46607;-58
2022/07/12 01:15:01;;;;;;;;;2.80;2.80;;;;;27.45;41.05;101605.63;2098542;28;47170;-57
2022/07/12 01:16:02;;;;;;;;;2.00;2.00;;;;;27.44;40.74;101602.03;2101500;27;48156;-59
2022/07/12 01:17:03;;;;;;;;;2.50;2.50;;;;;27.44;40.80;101601.13;2103646;27;48482;-57
2022/07/12 01:18:04;;;;;;;;;2.00;2.00;;;;;27.44;41.33;101607.47;2103794;28;47400;-59
2022/07/12 01:19:06;;;;;;;;;3.80;3.20;;;;;27.43;41.38;101602.97;2102550;27;47521;-59
2022/07/12 01:20:07;;;;;;;;;4.60;4.60;;;;;27.43;41.11;101608.44;2103850;28;47505;-60
2022/07/12 01:21:08;;;;;;;;;2.80;2.40;;;;;27.43;40.99;101605.72;2103498;27;48661;-59
2022/07/12 01:22:10;;;;;;;;;4.00;2.75;;;;;27.42;41.00;101609.44;2103895;27;48071;-59
2022/07/12 01:23:12;;;;;;;;;2.60;2.60;;;;;27.42;41.18;101608.56;2102647;28;47854;-59
2022/07/12 01:24:13;;;;;;;;;2.60;2.60;;;;;27.40;40.83;101605.94;2099043;27;47715;-61
2022/07/12 01:25:14;;;;;;;;;3.20;3.20;;;;;27.41;41.32;101606.81;2103453;27;47290;-59
2022/07/12 01:26:14;;;;;;;;;4.00;4.00;;;;;27.41;40.87;101610.41;2098278;28;45596;-58
2022/07/12 01:27:15;;;;;;;;;3.50;3.00;;;;;27.40;41.29;101608.69;2094636;28;46407;-60
2022/07/12 01:28:15;;;;;;;;;4.50;4.50;;;;;27.39;40.84;101598.78;2092958;28;47227;-59
2022/07/12 01:29:16;;;;;;;;;2.00;2.00;;;;;27.37;41.54;101610.78;2098123;27;46659;-58
2022/07/12 01:30:17;;;;;;;;;2.00;2.00;;;;;27.36;41.06;101609.06;2104142;28;47615;-61
2022/07/12 01:31:17;;;;;;;;;2.50;2.50;;;;;27.34;41.35;101605.59;2104726;27;47708;-57
2022/07/12 01:32:28;;;;;;;;;3.00;3.00;;;;;27.31;41.57;101597.63;2103987;28;47936;-59
2022/07/12 01:33:29;;;;;;;;;3.20;3.20;;;;;27.28;41.36;101610.50;2104152;27;47861;-60
2022/07/12 01:34:30;;;;;;;;;4.60;4.60;;;;;27.27;41.29;101602.44;2104714;28;45627;-59
2022/07/12 01:35:30;;;;;;;;;3.25;3.25;;;;;27.24;41.16;101611.75;2103839;27;47655;-58
2022/07/12 01:36:31;;;;;;;;;4.00;4.00;;;;;27.23;41.50;101598.25;2103711;27;47446;-59
2022/07/12 01:37:36;;;;;;;;;2.00;2.00;;;;;27.22;41.31;101601.97;2104001;28;47257;-59
2022/07/12 01:38:37;;;;;;;;;3.80;3.80;;;;;27.21;41.78;101605.66;2104849;27;45358;-59
2022/07/12 01:39:37;;;;;;;;;3.00;3.00;;;;;27.18;41.57;101604.03;2103753;27;48414;-59
2022/07/12 01:40:38;;;;;;;;;4.25;4.25;;;;;27.17;41.46;101604.16;2104268;27;47970;-58
2022/07/12 01:41:39;;;;;;;;;4.00;4.00;;;;;27.16;41.36;101594.25;2103926;27;47749;-58
2022/07/12 01:42:41;;;;;;;;;2.80;2.80;;;;;27.15;41.48;101597.97;2104016;28;47205;-57
2022/07/12 01:43:41;;;;;;;;;5.00;4.20;;;;;27.13;41.81;101595.34;2103157;27;45945;-59
2022/07/12 01:44:42;;;;;;;;;3.25;3.00;;;;;27.14;41.71;101601.66;2103787;27;47540;-56
2022/07/12 01:45:42;;;;;;;;;4.25;3.50;;;;;27.13;41.85;101605.38;2102749;27;47024;-58
2022/07/12 01:46:43;;;;;;;;;3.00;3.00;;;;;27.12;42.12;101604.50;2102827;27;47559;-59
2022/07/12 01:47:43;;;;;;;;;2.25;2.25;;;;;27.12;41.96;101598.19;2110289;27;47036;-58
2022/07/12 01:48:44;;;;;;;;;3.50;3.50;;;;;27.11;41.70;101601.91;2104276;28;45739;-58
2022/07/12 01:49:45;;;;;;;;;5.80;3.20;;;;;27.09;41.88;101593.88;2104313;28;46470;-58
2022/07/12 01:50:47;;;;;;;;;1.00;1.00;;;;;27.08;42.14;101594.84;2103723;28;47617;-58
2022/07/12 01:51:47;;;;;;;;;4.40;4.00;;;;;27.07;41.73;101601.28;2104118;27;47473;-58
2022/07/12 01:52:49;;;;;;;;;3.25;3.25;;;;;27.07;42.09;101601.28;2104156;27;47578;-60
2022/07/12 01:53:49;;;;;;;;;3.00;3.00;;;;;27.06;41.54;101606.81;2104646;28;46060;-59
2022/07/12 01:54:50;;;;;;;;;3.00;3.00;;;;;27.04;42.08;101609.69;2103755;27;47106;-59
2022/07/12 01:55:51;;;;;;;;;3.00;3.00;;;;;27.04;41.70;101606.09;2103446;28;47201;-58
2022/07/12 01:56:52;;;;;;;;;0.00;0.00;;;;;27.05;41.74;101607.81;2104385;28;47613;-59
2022/07/12 01:57:53;;;;;;;;;2.00;2.00;;;;;27.05;42.42;101611.41;2104290;27;47696;-60
2022/07/12 01:58:53;;;;;;;;;4.00;4.00;;;;;27.05;41.80;101607.81;2103890;27;48035;-60
2022/07/12 01:59:55;;;;;;;;;3.00;3.00;;;;;27.05;41.88;101611.41;2102710;27;45878;-58
2022/07/12 02:00:57;;;;;;;;;3.80;3.00;;;;;27.04;42.12;101608.81;2102627;27;47590;-60
2022/07/12 02:01:58;;;;;;;;;5.40;4.40;;;;;27.04;42.15;101608.81;2103951;28;48058;-59
2022/07/12 02:02:58;;;;;;;;;3.75;3.75;;;;;27.03;42.49;101612.53;2104020;27;47623;-58
2022/07/12 02:04:03;;;;;;;;;3.00;3.00;;;;;27.03;42.22;101607.94;2102938;27;47470;-58
2022/07/12 02:05:04;;;;;;;;;3.00;3.00;;;;;27.02;42.04;101602.63;2097200;28;48019;-60
2022/07/12 02:06:05;;;;;;;;;3.60;2.00;;;;;27.02;41.86;101603.47;2102987;28;47413;-60
2022/07/12 02:07:05;;;;;;;;;3.50;3.50;;;;;27.02;42.36;101603.47;2103181;27;46815;-58
2022/07/12 02:08:06;;;;;;;;;3.00;3.00;;;;;27.02;42.16;101603.47;2103866;28;47611;-58
2022/07/12 02:09:06;;;;;;;;;3.75;3.75;;;;;27.03;42.42;101596.19;2103759;27;47140;-58
2022/07/12 02:10:07;;;;;;;;;3.00;3.00;;;;;27.03;42.21;101607.06;2102565;28;47438;-59
2022/07/12 02:11:08;;;;;;;;;3.20;3.20;;;;;27.01;42.06;101607.19;2094717;28;47958;-58
2022/07/12 02:12:08;;;;;;;;;4.25;3.50;;;;;27.00;42.23;101599.97;2103662;27;47235;-58
2022/07/12 02:13:09;;;;;;;;;4.00;4.00;;;;;27.00;42.08;101608.16;2109738;27;47573;-58
2022/07/12 02:14:12;;;;;;;;;4.00;3.00;;;;;27.01;41.91;101600.84;2103517;27;47907;-59
2022/07/12 02:15:12;;;;;;;;;1.80;1.20;;;;;27.00;42.04;101605.44;2104020;27;47874;-59
2022/07/12 02:16:13;;;;;;;;;3.50;3.00;;;;;26.99;42.47;101604.56;2097764;27;47506;-58
2022/07/12 02:17:13;;;;;;;;;3.75;3.75;;;;;26.99;41.83;101610.00;2103789;27;47560;-60
2022/07/12 02:18:13;;;;;;;;;2.00;2.00;;;;;26.98;42.34;101608.28;2104285;27;46083;-59
2022/07/12 02:19:14;;;;;;;;;2.00;2.00;;;;;26.98;42.54;101612.84;2103685;27;47033;-58
2022/07/12 02:20:15;;;;;;;;;4.00;4.00;;;;;26.96;42.49;101610.25;2103230;27;47801;-59
2022/07/12 02:21:15;;;;;;;;;2.50;2.50;;;;;26.96;42.15;101604.81;2103638;28;47583;-58
2022/07/12 02:22:15;;;;;;;;;3.00;3.00;;;;;26.95;42.05;101603.06;2103975;27;47153;-59
2022/07/12 02:23:16;;;;;;;;;2.75;2.75;;;;;26.94;42.42;101608.63;2103978;27;47397;-58
2022/07/12 02:24:16;;;;;;;;;5.50;4.50;;;;;26.94;42.35;101605.91;2103947;27;47570;-59
2022/07/12 02:25:17;;;;;;;;;2.75;2.75;;;;;26.92;42.45;101603.28;2103471;28;48026;-59
2022/07/12 02:26:17;;;;;;;;;3.75;3.75;;;;;26.92;41.94;101605.13;2103985;27;47636;-58
2022/07/12 02:27:18;;;;;;;;;3.00;3.00;;;;;26.92;42.11;101603.28;2102812;27;46435;-60
2022/07/12 02:28:18;;;;;;;;;3.00;3.00;;;;;26.92;42.57;101608.72;2110409;27;47631;-59
2022/07/12 02:29:18;;;;;;;;;3.00;3.00;;;;;26.91;42.66;101606.13;2103680;28;47471;-58
2022/07/12 02:30:19;;;;;;;;;4.00;2.25;;;;;26.92;42.50;101607.84;2104046;27;46517;-58
2022/07/12 02:31:19;;;;;;;;;2.50;2.00;;;;;26.92;42.64;101607.84;2103660;27;47251;-59
2022/07/12 02:32:20;;;;;;;;;2.25;2.25;;;;;26.91;42.39;101603.41;2103722;27;47771;-59
2022/07/12 02:33:20;;;;;;;;;2.00;2.00;;;;;26.91;42.21;101604.25;2103967;27;47517;-59
2022/07/12 02:34:21;;;;;;;;;3.00;3.00;;;;;26.90;41.79;101605.25;2086089;28;47586;-59
2022/07/12 02:35:21;;;;;;;;;3.00;3.00;;;;;26.89;41.95;101606.25;2093528;28;48020;-60
2022/07/12 02:36:21;;;;;;;;;3.00;3.00;;;;;26.90;42.45;101609.84;2103270;28;47712;-60
2022/07/12 02:37:22;;;;;;;;;3.00;3.00;;;;;26.89;42.16;101611.69;2104267;28;45108;-60
2022/07/12 02:38:22;;;;;;;;;3.00;3.00;;;;;26.88;42.24;101604.50;2103381;28;47037;-61
2022/07/12 02:39:22;;;;;;;;;5.00;5.00;;;;;26.88;42.09;101607.22;2103318;28;47054;-59
2022/07/12 02:41:42;;;;;;;;;3.80;3.80;;;;;26.88;42.50;101599.06;2100707;28;47427;-60
2022/07/12 02:42:43;;;;;;;;;4.00;4.00;;;;;26.88;42.75;101598.19;2103413;28;47397;-59
2022/07/12 02:43:43;;;;;;;;;3.25;3.25;;;;;26.87;42.66;101601.91;2103268;28;47485;-58
2022/07/12 02:44:43;;;;;;;;;3.25;3.25;;;;;26.87;42.39;101604.63;2103776;28;47601;-59
2022/07/12 02:45:44;;;;;;;;;3.00;3.00;;;;;26.85;42.23;101599.31;2103660;28;47522;-58
2022/07/12 02:46:44;;;;;;;;;4.00;4.00;;;;;26.86;42.73;101608.34;2104314;27;47316;-59
2022/07/12 02:47:45;;;;;;;;;5.25;4.00;;;;;26.85;42.72;101604.75;2104064;27;48072;-59
2022/07/12 02:48:45;;;;;;;;;4.25;4.25;;;;;26.85;42.62;101603.88;2103699;27;47580;-60
2022/07/12 02:49:46;;;;;;;;;6.00;3.75;;;;;26.84;42.86;101611.19;2104808;28;46958;-61
2022/07/12 02:50:46;;;;;;;;;4.75;4.75;;;;;26.85;42.23;101606.59;2105502;28;47865;-60
2022/07/12 02:51:47;;;;;;;;;3.50;3.00;;;;;26.85;42.47;101609.31;2086688;28;47094;-60
2022/07/12 02:52:47;;;;;;;;;3.75;3.75;;;;;26.84;42.70;101611.19;2087365;28;46423;-59
2022/07/12 02:53:48;;;;;;;;;3.00;2.50;;;;;26.84;42.90;101615.75;2105515;28;46745;-60
2022/07/12 02:54:48;;;;;;;;;3.75;3.75;;;;;26.84;42.67;101613.03;2095975;28;47158;-59
2022/07/12 02:55:48;;;;;;;;;3.25;3.25;;;;;26.84;42.80;101613.91;2095834;28;47475;-60
2022/07/12 02:56:49;;;;;;;;;3.75;3.75;;;;;26.84;42.77;101611.19;2105142;27;47453;-58
2022/07/12 02:57:49;;;;;;;;;4.25;4.25;;;;;26.84;42.14;101619.34;2105916;27;45576;-60
2022/07/12 02:58:50;;;;;;;;;3.25;3.25;;;;;26.83;42.88;101608.59;2111868;27;47955;-60
2022/07/12 02:59:50;;;;;;;;;3.50;3.50;;;;;26.82;43.01;101621.34;2104939;27;46484;-60
2022/07/12 03:00:51;;;;;;;;;2.75;2.75;;;;;26.82;42.49;101621.34;2093215;28;47407;-57
2022/07/12 03:01:51;;;;;;;;;4.00;4.00;;;;;26.82;42.57;101615.00;2095811;28;47609;-60
2022/07/12 03:02:52;;;;;;;;;4.00;4.00;;;;;26.82;42.88;101617.75;2077891;28;46934;-60
2022/07/12 03:03:52;;;;;;;;;4.00;4.00;;;;;26.81;42.97;101614.16;2078972;28;47895;-59
2022/07/12 03:04:52;;;;;;;;;4.50;3.50;;;;;26.80;42.57;101615.09;2104986;28;46362;-60
2022/07/12 03:05:53;;;;;;;;;4.25;4.25;;;;;26.79;42.93;101616.09;2102301;28;47768;-60
2022/07/12 03:06:53;;;;;;;;;3.25;2.50;;;;;26.78;42.38;101614.34;2103797;28;47205;-59
2022/07/12 03:07:54;;;;;;;;;2.50;2.50;;;;;26.78;43.00;101624.38;2105929;27;45726;-57
2022/07/12 03:08:54;;;;;;;;;3.00;3.00;;;;;26.77;42.87;101625.38;2103705;27;47765;-59
2022/07/12 03:09:54;;;;;;;;;2.75;2.75;;;;;26.76;42.98;101620.91;2102312;27;47359;-60
2022/07/12 03:10:55;;;;;;;;;4.00;4.00;;;;;26.75;42.59;101621.91;2105242;28;46028;-60
2022/07/12 03:11:55;;;;;;;;;3.50;3.50;;;;;26.75;42.96;101630.06;2099935;28;47266;-60
2022/07/12 03:12:55;;;;;;;;;2.00;2.00;;;;;26.74;42.45;101628.31;2104323;28;45449;-61
2022/07/12 03:13:56;;;;;;;;;3.25;3.25;;;;;26.73;42.73;101630.19;2106032;27;47636;-62
2022/07/12 03:14:56;;;;;;;;;3.00;3.00;;;;;26.74;43.08;101631.06;2105174;28;47663;-61
2022/07/12 03:15:57;;;;;;;;;4.00;3.00;;;;;26.72;42.47;101627.59;2091915;28;47611;-58
2022/07/12 03:16:57;;;;;;;;;3.25;3.25;;;;;26.72;43.09;101627.59;2095038;28;46771;-59
2022/07/12 03:17:59;;;;;;;;;3.75;3.75;;;;;26.71;43.28;101617.69;2105066;27;47866;-59
2022/07/12 03:18:59;;;;;;;;;5.00;5.00;;;;;26.71;43.11;101617.69;2104488;27;48034;-61
2022/07/12 03:20:00;;;;;;;;;3.00;3.00;;;;;26.68;42.62;101622.38;2105169;28;47902;-61
2022/07/12 03:21:01;;;;;;;;;4.00;4.00;;;;;26.68;42.77;101621.50;2104652;27;47810;-61
2022/07/12 03:22:01;;;;;;;;;3.67;3.67;;;;;26.68;43.04;101626.94;2105105;27;47227;-61
2022/07/12 03:23:02;;;;;;;;;4.50;4.50;;;;;26.68;42.76;101626.94;2069401;28;47489;-61
2022/07/12 03:24:02;;;;;;;;;6.00;6.00;;;;;26.67;43.02;101620.59;2069595;28;47630;-63
2022/07/12 03:25:04;;;;;;;;;5.00;5.00;;;;;26.67;42.91;101620.59;2084685;28;47413;-61
2022/07/12 03:26:06;;;;;;;;;2.00;2.00;;;;;26.67;43.15;101620.59;2085588;28;47572;-60
2022/07/12 03:27:07;;;;;;;;;5.40;4.80;;;;;26.67;42.83;101620.59;2105002;27;48017;-59
2022/07/12 03:28:07;;;;;;;;;5.25;5.25;;;;;26.67;42.73;101625.19;2104563;27;47217;-61
2022/07/12 03:29:07;;;;;;;;;4.75;4.75;;;;;26.67;42.72;101617.00;2104208;27;47124;-60
2022/07/12 03:30:08;;;;;;;;;4.00;4.00;;;;;26.64;42.58;101620.84;2104557;27;47149;-60
2022/07/12 03:31:09;;;;;;;;;3.80;3.80;;;;;26.64;42.77;101619.97;2093769;28;47348;-60
2022/07/12 03:32:09;;;;;;;;;4.50;4.50;;;;;26.63;43.39;101624.56;2092569;28;47820;-59
2022/07/12 03:33:10;;;;;;;;;4.00;4.00;;;;;26.63;43.48;101615.50;2105053;27;47555;-60
2022/07/12 03:34:10;;;;;;;;;4.00;4.00;;;;;26.62;43.49;101617.38;2104635;27;47574;-60
2022/07/12 03:35:11;;;;;;;;;3.50;3.50;;;;;26.61;43.43;101617.50;2105003;27;46838;-59
2022/07/12 03:36:12;;;;;;;;;6.00;5.00;;;;;26.60;43.13;101622.06;2105099;28;47987;-60
2022/07/12 03:37:12;;;;;;;;;5.00;5.00;;;;;26.60;43.26;101616.63;2104493;28;47842;-60
2022/07/12 03:38:13;;;;;;;;;3.25;3.25;;;;;26.59;43.38;101623.06;2104462;27;47432;-59
2022/07/12 03:39:14;;;;;;;;;4.00;4.00;;;;;26.59;43.42;101614.00;2105299;28;47975;-59
2022/07/12 03:40:16;;;;;;;;;4.00;4.00;;;;;26.58;43.25;101624.03;2103736;27;47387;-60
2022/07/12 03:41:17;;;;;;;;;4.00;4.00;;;;;26.57;43.36;101616.84;2101295;28;47157;-61
2022/07/12 03:42:17;;;;;;;;;4.00;4.00;;;;;26.57;43.02;101622.31;2105005;28;48015;-60
2022/07/12 03:43:17;;;;;;;;;3.00;3.00;;;;;26.57;43.65;101625.03;2104220;28;47877;-60
2022/07/12 03:44:18;;;;;;;;;5.25;4.00;;;;;26.56;43.66;101622.41;2108682;27;47328;-59
2022/07/12 03:45:18;;;;;;;;;5.50;4.25;;;;;26.55;43.06;101623.38;2095598;28;47906;-60
2022/07/12 03:46:18;;;;;;;;;5.50;4.00;;;;;26.53;43.21;101625.34;2095582;28;47189;-59
2022/07/12 03:47:19;;;;;;;;;6.00;6.00;;;;;26.51;43.76;101621.88;2107941;27;47930;-60
2022/07/12 03:48:19;;;;;;;;;4.00;4.00;;;;;26.50;43.73;101631.03;2104084;28;47856;-60
2022/07/12 03:49:19;;;;;;;;;3.50;3.50;;;;;26.47;43.20;101623.97;2102543;27;47684;-60
2022/07/12 03:50:20;;;;;;;;;5.00;5.00;;;;;26.45;43.84;101634.09;2089658;28;47348;-60
2022/07/12 03:51:20;;;;;;;;;3.50;3.50;;;;;26.42;43.28;101628.00;2078916;28;47929;-60
2022/07/12 03:52:21;;;;;;;;;5.00;3.75;;;;;26.40;43.80;101628.09;2092952;28;47804;-60
2022/07/12 03:53:21;;;;;;;;;3.00;3.00;;;;;26.37;43.32;101640.09;2096060;28;47601;-61
2022/07/12 03:54:22;;;;;;;;;3.25;3.25;;;;;26.36;44.05;101634.78;2098098;28;47200;-58
2022/07/12 03:55:22;;;;;;;;;5.00;5.00;;;;;26.35;43.79;101639.31;2096316;28;48137;-60
2022/07/12 03:57:42;;;;;;;;;4.40;4.40;;;;;26.34;43.76;101640.28;2092469;28;47086;-60
2022/07/12 03:58:42;;;;;;;;;4.75;4.00;;;;;26.32;43.35;101639.53;2095728;28;47688;-60
2022/07/12 03:59:44;;;;;;;;;4.50;4.50;;;;;26.33;43.45;101635.84;2096483;28;46813;-60
2022/07/12 04:00:44;;;;;;;;;4.00;3.00;;;;;26.32;43.90;101634.09;2095022;28;47768;-60
2022/07/12 04:01:45;;;;;;;;;4.50;4.00;;;;;26.31;43.87;101637.81;2095767;28;45253;-59
2022/07/12 04:02:45;;;;;;;;;4.50;4.50;;;;;26.30;44.07;101636.06;2095919;28;47519;-61
2022/07/12 04:03:46;;;;;;;;;3.50;3.50;;;;;26.27;44.01;101639.00;2086871;28;45601;-58
2022/07/12 04:04:46;;;;;;;;;4.50;4.50;;;;;26.27;43.47;101636.28;2086878;28;46784;-60
2022/07/12 04:05:47;;;;;;;;;5.50;5.50;;;;;26.25;44.30;101643.69;2096480;28;47379;-60
2022/07/12 04:06:47;;;;;;;;;5.00;5.00;;;;;26.25;43.89;101650.97;2096321;28;47688;-54
2022/07/12 04:07:47;;;;;;;;;5.50;5.50;;;;;26.25;44.23;101642.81;2096065;28;47264;-55
2022/07/12 04:08:48;;;;;;;;;4.75;4.00;;;;;26.25;43.69;101650.97;2096464;28;47052;-54
2022/07/12 04:09:48;;;;;;;;;4.25;4.25;;;;;26.24;43.88;101650.09;2096224;28;47262;-55
2022/07/12 04:10:49;;;;;;;;;5.00;5.00;;;;;26.25;44.32;101651.84;2086697;28;48008;-55
2022/07/12 04:11:50;;;;;;;;;4.80;4.00;;;;;26.26;43.64;101655.44;2086581;28;47370;-55
2022/07/12 04:12:50;;;;;;;;;6.25;6.25;;;;;26.25;43.62;101653.69;2096192;28;47517;-53
2022/07/12 04:13:51;;;;;;;;;4.50;4.50;;;;;26.25;43.54;101653.69;2095972;28;47058;-56
2022/07/12 04:14:51;;;;;;;;;3.00;3.00;;;;;26.25;44.07;101654.56;2099330;28;47633;-54
2022/07/12 04:15:51;;;;;;;;;6.25;5.00;;;;;26.26;43.93;101655.44;2095742;28;47575;-56
2022/07/12 04:16:52;;;;;;;;;6.00;6.00;;;;;26.25;43.66;101657.28;2096508;28;47573;-53
2022/07/12 04:17:52;;;;;;;;;5.00;5.00;;;;;26.24;43.53;101650.09;2096651;28;47752;-54
2022/07/12 04:18:53;;;;;;;;;4.00;4.00;;;;;26.24;43.64;101652.81;2096390;28;47629;-54
2022/07/12 04:19:54;;;;;;;;;3.80;3.80;;;;;26.24;43.64;101652.81;2096270;28;47819;-52
2022/07/12 04:20:54;;;;;;;;;5.00;5.00;;;;;26.24;44.29;101655.56;2097239;28;45984;-51
2022/07/12 04:21:57;;;;;;;;;4.00;3.50;;;;;26.23;44.16;101659.25;2097252;28;47601;-52
2022/07/12 04:22:58;;;;;;;;;4.80;4.40;;;;;26.23;43.93;101653.81;2087637;28;46728;-52
2022/07/12 04:23:58;;;;;;;;;5.50;5.50;;;;;26.23;44.00;101659.25;2086731;28;47472;-53
2022/07/12 04:24:59;;;;;;;;;6.50;6.25;;;;;26.22;44.33;101651.22;2097022;28;47108;-53
2022/07/12 04:25:59;;;;;;;;;4.25;4.25;;;;;26.22;43.82;101653.94;2096473;28;47438;-54
2022/07/12 04:26:59;;;;;;;;;5.50;5.50;;;;;26.21;43.90;101650.34;2095927;28;47583;-54
2022/07/12 04:28:00;;;;;;;;;4.00;4.00;;;;;26.21;43.48;101663.06;2096033;28;45662;-52
2022/07/12 04:29:00;;;;;;;;;5.25;5.25;;;;;26.20;43.83;101655.91;2096443;28;47620;-54
2022/07/12 04:30:01;;;;;;;;;4.50;3.25;;;;;26.19;44.19;101656.88;2096862;28;47400;-53
2022/07/12 04:31:02;;;;;;;;;6.50;5.50;;;;;26.18;44.02;101658.72;2096312;28;47853;-55
2022/07/12 04:32:02;;;;;;;;;5.00;5.00;;;;;26.18;43.93;101655.16;2096549;28;47607;-54
2022/07/12 04:33:03;;;;;;;;;6.00;6.00;;;;;26.16;43.86;101666.09;2087975;28;46666;-52
2022/07/12 04:34:03;;;;;;;;;6.00;6.00;;;;;26.14;44.29;101662.63;2087151;28;47951;-53
2022/07/12 04:35:04;;;;;;;;;5.00;5.00;;;;;26.14;44.24;101662.63;2096755;28;47959;-55
2022/07/12 04:36:05;;;;;;;;;5.00;5.00;;;;;26.11;44.54;101651.97;2096525;28;46650;-52
2022/07/12 04:37:05;;;;;;;;;5.00;5.00;;;;;26.10;43.91;101662.00;2096328;28;46720;-54
2022/07/12 04:38:07;;;;;;;;;6.75;6.75;;;;;26.07;44.19;101654.06;2096642;28;47877;-56
2022/07/12 04:39:07;;;;;;;;;4.80;4.80;;;;;26.07;44.33;101655.91;2096586;28;48005;-56
2022/07/12 04:40:08;;;;;;;;;5.00;5.00;;;;;26.06;44.39;101651.44;2096328;28;46027;-56
2022/07/12 04:41:09;;;;;;;;;4.00;4.00;;;;;26.05;44.39;101656.03;2095843;28;47471;-53
2022/07/12 04:42:09;;;;;;;;;5.00;5.00;;;;;26.05;43.81;101650.59;2095895;28;48164;-54
2022/07/12 04:43:10;;;;;;;;;5.25;4.25;;;;;26.05;44.37;101661.47;2093883;28;45743;-54
2022/07/12 04:44:10;;;;;;;;;5.00;4.75;;;;;26.03;44.58;101652.53;2095812;28;47846;-54
2022/07/12 04:45:11;;;;;;;;;7.00;7.00;;;;;26.03;44.57;101663.41;2096436;28;47980;-55